Time;durP1;ratioP1;P1;durP2;ratioP2;P2;SDS_P1;SDS_P2;PMS_P1;PMS_P2;Temp;Humidity;BMP_temperature;BMP_pressure;BME280_temperature;BME280_humidity;BME280_pressure;Samples;Min_cycle;Max_cycle;Signal;HPM_P1;HPM_P2
2023/09/27 00:00:26;;;;;;;18.13;14.15;;;;;;;;;;2095361;28;20129;-78
2023/09/27 00:01:47;;;;;;;24.48;15.20;;;;;;;;;;2091132;28;20048;-78
2023/09/27 00:03:08;;;;;;;21.85;14.85;;;;;;;;;;2094515;28;20091;-76
2023/09/27 00:04:29;;;;;;;23.35;14.00;;;;;;;;;;2097840;28;20028;-77
2023/09/27 00:05:50;;;;;;;21.15;15.02;;;;;;;;;;2093806;28;20024;-78
2023/09/27 00:07:11;;;;;;;20.00;13.95;;;;;;;;;;2091963;28;20029;-77
2023/09/27 00:08:32;;;;;;;20.23;14.35;;;;;;;;;;2091545;28;20461;-78
2023/09/27 00:09:53;;;;;;;21.35;14.80;;;;;;;;;;2094693;28;20040;-75
2023/09/27 00:11:14;;;;;;;21.38;15.32;;;;;;;;;;2092113;28;20078;-77
2023/09/27 00:12:36;;;;;;;20.63;15.63;;;;;;;;;;2092959;28;20017;-76
2023/09/27 00:13:56;;;;;;;22.60;16.88;;;;;;;;;;2093011;28;20457;-78
2023/09/27 00:15:17;;;;;;;23.80;17.00;;;;;;;;;;2100926;28;20077;-78
2023/09/27 00:16:38;;;;;;;23.17;15.10;;;;;;;;;;2095077;28;20523;-76
2023/09/27 00:17:59;;;;;;;24.15;16.50;;;;;;;;;;2095006;28;20087;-77
2023/09/27 00:19:20;;;;;;;27.00;16.25;;;;;;;;;;2099806;28;20032;-78
2023/09/27 00:20:41;;;;;;;25.95;15.70;;;;;;;;;;2100023;28;20444;-78
2023/09/27 00:22:02;;;;;;;20.30;15.20;;;;;;;;;;2105447;28;20121;-78
2023/09/27 00:23:23;;;;;;;27.48;16.52;;;;;;;;;;2088903;28;20025;-77
2023/09/27 00:24:44;;;;;;;23.05;15.70;;;;;;;;;;2094004;28;20079;-78
2023/09/27 00:26:05;;;;;;;24.40;15.88;;;;;;;;;;2095806;28;20032;-78
2023/09/27 00:27:26;;;;;;;21.98;15.93;;;;;;;;;;2087903;28;20025;-77
2023/09/27 00:28:47;;;;;;;23.63;16.70;;;;;;;;;;2093084;28;20771;-78
2023/09/27 00:30:08;;;;;;;21.55;16.00;;;;;;;;;;2104317;28;20040;-77
2023/09/27 00:31:29;;;;;;;30.50;17.17;;;;;;;;;;2096036;28;20028;-78
2023/09/27 00:32:50;;;;;;;28.50;17.55;;;;;;;;;;2097379;28;20032;-78
2023/09/27 00:34:11;;;;;;;24.65;16.27;;;;;;;;;;2094707;28;20036;-78
2023/09/27 00:35:32;;;;;;;23.63;17.13;;;;;;;;;;2095532;28;20056;-77
2023/09/27 00:36:52;;;;;;;23.60;16.30;;;;;;;;;;2094492;28;20037;-77
2023/09/27 00:38:13;;;;;;;25.88;16.63;;;;;;;;;;2095793;28;20503;-77
2023/09/27 00:39:39;;;;;;;25.17;17.05;;;;;;;;;;2091669;28;20044;-78
2023/09/27 00:40:59;;;;;;;27.05;17.10;;;;;;;;;;2089114;28;20040;-78
2023/09/27 00:42:20;;;;;;;23.30;16.67;;;;;;;;;;2089350;28;20029;-77
2023/09/27 00:43:41;;;;;;;21.85;16.55;;;;;;;;;;2099877;28;20470;-78
2023/09/27 00:45:03;;;;;;;24.52;17.20;;;;;;;;;;2097001;28;20041;-77
2023/09/27 00:46:24;;;;;;;25.88;17.27;;;;;;;;;;2096780;28;20036;-78
2023/09/27 00:47:49;;;;;;;33.35;17.10;;;;;;;;;;2104573;28;20063;-77
2023/09/27 00:49:10;;;;;;;26.70;17.77;;;;;;;;;;2097419;28;20041;-77
2023/09/27 00:50:31;;;;;;;29.25;19.23;;;;;;;;;;2102533;28;20048;-78
2023/09/27 00:51:52;;;;;;;25.13;17.63;;;;;;;;;;2110226;28;20471;-78
2023/09/27 00:53:13;;;;;;;28.48;19.48;;;;;;;;;;2094909;28;20033;-77
2023/09/27 00:54:34;;;;;;;31.02;18.98;;;;;;;;;;2095233;28;20037;-73
2023/09/27 00:55:55;;;;;;;27.20;18.25;;;;;;;;;;2093559;28;20043;-77
2023/09/27 00:57:16;;;;;;;27.95;19.50;;;;;;;;;;2091827;28;20033;-78
2023/09/27 00:58:37;;;;;;;27.77;18.27;;;;;;;;;;2093235;28;20380;-78
2023/09/27 00:59:58;;;;;;;25.15;18.02;;;;;;;;;;2091847;28;20036;-76
2023/09/27 01:01:19;;;;;;;29.98;18.50;;;;;;;;;;2090907;28;20029;-78
2023/09/27 01:02:41;;;;;;;27.95;19.40;;;;;;;;;;2094153;28;21375;-78
2023/09/27 01:04:02;;;;;;;25.20;18.48;;;;;;;;;;2094729;28;20036;-78
2023/09/27 01:05:23;;;;;;;28.13;18.23;;;;;;;;;;2092479;28;20090;-77
2023/09/27 01:06:44;;;;;;;28.92;19.05;;;;;;;;;;2088863;28;20094;-78
2023/09/27 01:08:05;;;;;;;25.80;17.40;;;;;;;;;;2091229;28;20513;-78
2023/09/27 01:09:26;;;;;;;30.40;19.63;;;;;;;;;;2083736;28;20029;-77
2023/09/27 01:10:47;;;;;;;28.65;19.92;;;;;;;;;;2090041;28;20029;-76
2023/09/27 01:12:07;;;;;;;25.80;19.40;;;;;;;;;;2094833;28;20093;-74
2023/09/27 01:13:28;;;;;;;31.45;20.02;;;;;;;;;;2100204;28;20035;-77
2023/09/27 01:14:50;;;;;;;29.58;19.40;;;;;;;;;;2095292;28;20067;-78
2023/09/27 01:16:11;;;;;;;26.55;18.65;;;;;;;;;;2092358;28;20087;-77
2023/09/27 01:17:32;;;;;;;25.58;18.40;;;;;;;;;;2093895;28;20430;-77
2023/09/27 01:18:53;;;;;;;28.25;19.05;;;;;;;;;;2096724;28;20025;-78
2023/09/27 01:20:14;;;;;;;25.67;18.25;;;;;;;;;;2095802;28;20039;-78
2023/09/27 01:21:35;;;;;;;32.55;19.58;;;;;;;;;;2096410;28;20040;-78
2023/09/27 01:23:03;;;;;;;29.77;17.90;;;;;;;;;;2092465;28;20033;-78
2023/09/27 01:24:26;;;;;;;28.77;20.25;;;;;;;;;;2094954;28;20150;-78
2023/09/27 01:25:50;;;;;;;29.10;19.08;;;;;;;;;;2093667;28;20036;-76
2023/09/27 01:27:11;;;;;;;24.00;17.63;;;;;;;;;;2094186;28;20047;-78
2023/09/27 01:28:33;;;;;;;27.05;18.52;;;;;;;;;;2092827;28;20089;-78
2023/09/27 01:29:54;;;;;;;28.42;18.88;;;;;;;;;;2092172;28;20040;-77
2023/09/27 01:31:15;;;;;;;25.25;18.42;;;;;;;;;;2092378;28;20220;-77
2023/09/27 01:32:36;;;;;;;27.73;18.98;;;;;;;;;;2092005;28;20033;-77
2023/09/27 01:33:56;;;;;;;40.15;20.80;;;;;;;;;;2092987;28;20036;-77
2023/09/27 01:35:17;;;;;;;30.17;20.60;;;;;;;;;;2098647;28;20458;-78
2023/09/27 01:36:38;;;;;;;35.15;19.85;;;;;;;;;;2093967;28;20029;-77
2023/09/27 01:37:59;;;;;;;29.58;19.75;;;;;;;;;;2094263;28;20020;-78
2023/09/27 01:39:21;;;;;;;34.20;18.85;;;;;;;;;;2095041;28;20035;-77
2023/09/27 01:40:42;;;;;;;28.75;19.55;;;;;;;;;;2091662;28;20032;-78
2023/09/27 01:42:04;;;;;;;25.95;17.25;;;;;;;;;;2093286;28;20074;-73
2023/09/27 01:43:25;;;;;;;26.13;18.75;;;;;;;;;;2093885;28;20131;-77
2023/09/27 01:44:46;;;;;;;30.20;20.60;;;;;;;;;;2090648;28;20451;-77
2023/09/27 01:46:07;;;;;;;28.08;18.30;;;;;;;;;;2096283;28;20036;-75
2023/09/27 01:47:28;;;;;;;28.88;17.70;;;;;;;;;;2096435;28;20365;-78
2023/09/27 01:48:48;;;;;;;28.25;18.52;;;;;;;;;;2091652;28;20025;-78
2023/09/27 01:50:10;;;;;;;27.90;18.20;;;;;;;;;;2094893;28;20033;-78
2023/09/27 01:51:31;;;;;;;24.35;16.90;;;;;;;;;;2091323;28;20027;-78
2023/09/27 01:52:52;;;;;;;31.13;18.75;;;;;;;;;;2095824;28;20043;-77
2023/09/27 01:54:13;;;;;;;26.88;17.95;;;;;;;;;;2091153;28;20036;-74
2023/09/27 01:55:34;;;;;;;26.90;18.48;;;;;;;;;;2092802;28;20116;-77
2023/09/27 01:56:54;;;;;;;31.40;18.90;;;;;;;;;;2092628;28;20067;-78
2023/09/27 01:58:15;;;;;;;25.90;18.08;;;;;;;;;;2091585;28;20098;-77
2023/09/27 01:59:36;;;;;;;28.20;18.42;;;;;;;;;;2089560;28;20029;-78
2023/09/27 02:00:57;;;;;;;25.48;17.38;;;;;;;;;;2093908;28;20506;-75
2023/09/27 02:02:18;;;;;;;24.48;17.20;;;;;;;;;;2094701;28;20033;-77
2023/09/27 02:03:40;;;;;;;26.25;18.15;;;;;;;;;;2094431;28;20025;-77
2023/09/27 02:05:01;;;;;;;23.50;17.02;;;;;;;;;;2093846;28;20049;-77
2023/09/27 02:06:23;;;;;;;25.87;17.57;;;;;;;;;;2092707;28;20025;-77
2023/09/27 02:07:44;;;;;;;25.65;16.95;;;;;;;;;;2092296;28;20029;-78
2023/09/27 02:09:06;;;;;;;26.02;17.83;;;;;;;;;;2089965;28;20490;-75
2023/09/27 02:10:27;;;;;;;24.13;17.60;;;;;;;;;;2092823;28;20028;-75
2023/09/27 02:11:47;;;;;;;25.65;17.15;;;;;;;;;;2092459;28;20033;-75
2023/09/27 02:13:08;;;;;;;24.63;16.95;;;;;;;;;;2094449;28;20025;-77
2023/09/27 02:14:29;;;;;;;26.60;17.60;;;;;;;;;;2091247;28;20044;-78
2023/09/27 02:15:50;;;;;;;26.10;18.27;;;;;;;;;;2092228;28;20097;-76
2023/09/27 02:17:11;;;;;;;25.25;18.27;;;;;;;;;;2093637;28;20041;-75
2023/09/27 02:18:32;;;;;;;24.42;18.23;;;;;;;;;;2094503;28;20036;-73
2023/09/27 02:19:54;;;;;;;23.15;17.23;;;;;;;;;;2094178;28;20074;-75
2023/09/27 02:21:15;;;;;;;28.27;18.10;;;;;;;;;;2092276;28;20066;-74
2023/09/27 02:22:37;;;;;;;24.58;18.42;;;;;;;;;;2094333;28;20031;-74
2023/09/27 02:23:58;;;;;;;28.83;18.88;;;;;;;;;;2094150;28;20040;-75
2023/09/27 02:25:19;;;;;;;28.90;19.83;;;;;;;;;;2093306;28;20032;-75
2023/09/27 02:26:40;;;;;;;25.05;18.38;;;;;;;;;;2094995;28;20078;-73
2023/09/27 02:28:01;;;;;;;26.17;17.40;;;;;;;;;;2093707;28;20028;-75
2023/09/27 02:29:22;;;;;;;27.55;18.70;;;;;;;;;;2095254;28;20033;-75
2023/09/27 02:30:43;;;;;;;25.63;17.77;;;;;;;;;;2093711;28;20441;-75
2023/09/27 02:32:07;;;;;;;25.98;17.40;;;;;;;;;;2096841;28;20288;-75
2023/09/27 02:33:29;;;;;;;22.77;17.60;;;;;;;;;;2096683;28;20471;-74
2023/09/27 02:34:51;;;;;;;25.02;17.60;;;;;;;;;;2086024;28;20542;-74
2023/09/27 02:36:12;;;;;;;27.08;17.98;;;;;;;;;;2093363;28;20462;-74
2023/09/27 02:37:33;;;;;;;24.02;17.40;;;;;;;;;;2092624;28;20079;-75
2023/09/27 02:38:54;;;;;;;23.90;17.23;;;;;;;;;;2091323;28;20067;-75
2023/09/27 02:40:15;;;;;;;24.35;18.23;;;;;;;;;;2090527;28;20507;-74
2023/09/27 02:41:36;;;;;;;24.35;16.48;;;;;;;;;;2094298;28;20102;-75
2023/09/27 02:42:57;;;;;;;22.27;15.85;;;;;;;;;;2094452;28;20040;-73
2023/09/27 02:44:18;;;;;;;28.95;18.40;;;;;;;;;;2093062;28;20645;-74
2023/09/27 02:45:39;;;;;;;26.85;17.88;;;;;;;;;;2092354;28;20037;-75
2023/09/27 02:47:00;;;;;;;25.58;17.33;;;;;;;;;;2095430;28;20032;-75
2023/09/27 02:48:21;;;;;;;24.35;15.90;;;;;;;;;;2094889;28;20089;-75
2023/09/27 02:49:42;;;;;;;22.88;15.70;;;;;;;;;;2088935;28;20561;-75
2023/09/27 02:51:03;;;;;;;21.48;16.15;;;;;;;;;;2098687;28;20029;-75
2023/09/27 02:52:23;;;;;;;25.92;15.57;;;;;;;;;;2100502;28;20033;-75
2023/09/27 02:53:44;;;;;;;21.77;15.50;;;;;;;;;;2098045;28;20498;-75
2023/09/27 02:55:08;;;;;;;21.65;15.27;;;;;;;;;;2095597;28;20040;-75
2023/09/27 02:56:29;;;;;;;20.40;14.63;;;;;;;;;;2097576;28;20028;-75
2023/09/27 02:57:50;;;;;;;22.67;16.45;;;;;;;;;;2101749;28;20028;-75
2023/09/27 02:59:11;;;;;;;23.33;15.57;;;;;;;;;;2111737;28;20030;-75
2023/09/27 03:00:34;;;;;;;24.05;15.82;;;;;;;;;;2099081;28;20065;-75
2023/09/27 03:01:55;;;;;;;24.35;15.52;;;;;;;;;;2088995;28;20025;-75
2023/09/27 03:03:19;;;;;;;21.10;14.90;;;;;;;;;;2094879;28;20040;-75
2023/09/27 03:04:40;;;;;;;22.40;14.75;;;;;;;;;;2094198;28;20036;-75
2023/09/27 03:06:01;;;;;;;20.90;14.82;;;;;;;;;;2086245;28;20086;-75
2023/09/27 03:07:23;;;;;;;23.40;15.80;;;;;;;;;;2090707;28;20345;-75
2023/09/27 03:08:44;;;;;;;21.35;16.20;;;;;;;;;;2089994;28;20479;-75
2023/09/27 03:10:08;;;;;;;19.63;14.60;;;;;;;;;;2097238;28;20043;-75
2023/09/27 03:11:29;;;;;;;24.83;16.00;;;;;;;;;;2092331;28;20044;-75
2023/09/27 03:12:51;;;;;;;23.80;15.88;;;;;;;;;;2105119;28;20032;-75
2023/09/27 03:14:12;;;;;;;19.35;14.32;;;;;;;;;;2089622;28;20044;-75
2023/09/27 03:15:34;;;;;;;19.52;15.30;;;;;;;;;;2096822;28;20044;-76
2023/09/27 03:16:55;;;;;;;21.35;15.95;;;;;;;;;;2089442;28;20029;-74
2023/09/27 03:18:16;;;;;;;22.55;15.35;;;;;;;;;;2097297;28;20158;-74
2023/09/27 03:19:38;;;;;;;21.25;14.55;;;;;;;;;;2094484;28;20673;-73
2023/09/27 03:20:59;;;;;;;23.75;15.50;;;;;;;;;;2096720;28;20082;-73
2023/09/27 03:22:20;;;;;;;21.60;14.25;;;;;;;;;;2091908;28;20026;-74
2023/09/27 03:23:41;;;;;;;18.95;14.40;;;;;;;;;;2087881;28;20033;-74
2023/09/27 03:25:02;;;;;;;26.75;15.57;;;;;;;;;;2109464;28;20071;-75
2023/09/27 03:26:23;;;;;;;19.67;15.27;;;;;;;;;;2100402;28;20029;-75
2023/09/27 03:27:44;;;;;;;18.92;13.35;;;;;;;;;;2095911;28;20033;-75
2023/09/27 03:29:04;;;;;;;19.98;14.27;;;;;;;;;;2096705;28;20504;-75
2023/09/27 03:30:25;;;;;;;21.52;14.27;;;;;;;;;;2095075;28;20037;-74
2023/09/27 03:31:46;;;;;;;22.15;14.95;;;;;;;;;;2096293;28;20074;-75
2023/09/27 03:33:07;;;;;;;18.70;14.43;;;;;;;;;;2095357;28;20500;-74
2023/09/27 03:34:28;;;;;;;22.33;14.60;;;;;;;;;;2095872;28;20036;-74
2023/09/27 03:35:49;;;;;;;22.52;15.82;;;;;;;;;;2094747;28;20033;-74
2023/09/27 03:37:10;;;;;;;23.92;15.30;;;;;;;;;;2101379;28;20035;-74
2023/09/27 03:38:32;;;;;;;22.83;15.80;;;;;;;;;;2095159;28;20089;-74
2023/09/27 03:39:53;;;;;;;21.13;15.00;;;;;;;;;;2089740;28;20064;-75
2023/09/27 03:41:13;;;;;;;17.65;14.32;;;;;;;;;;2086039;28;22082;-74
2023/09/27 03:42:34;;;;;;;23.65;14.48;;;;;;;;;;2095293;28;20037;-74
2023/09/27 03:43:55;;;;;;;21.08;14.15;;;;;;;;;;2094815;28;20170;-74
2023/09/27 03:45:16;;;;;;;22.50;15.20;;;;;;;;;;2093655;28;20450;-73
2023/09/27 03:46:37;;;;;;;23.90;15.57;;;;;;;;;;2101353;28;20085;-74
2023/09/27 03:47:58;;;;;;;25.73;15.38;;;;;;;;;;2096968;28;20484;-76
2023/09/27 03:49:19;;;;;;;22.58;14.68;;;;;;;;;;2095294;28;20032;-75
2023/09/27 03:50:40;;;;;;;23.75;14.93;;;;;;;;;;2096463;28;20400;-74
2023/09/27 03:52:00;;;;;;;18.58;14.52;;;;;;;;;;2097023;28;20048;-74
2023/09/27 03:53:21;;;;;;;20.77;15.02;;;;;;;;;;2096523;28;20025;-75
2023/09/27 03:54:42;;;;;;;21.50;15.18;;;;;;;;;;2090203;28;20514;-75
2023/09/27 03:56:03;;;;;;;21.27;14.35;;;;;;;;;;2091817;28;20036;-74
2023/09/27 03:57:24;;;;;;;20.30;14.75;;;;;;;;;;2094507;28;20040;-75
2023/09/27 03:58:45;;;;;;;24.40;15.38;;;;;;;;;;2094947;28;20028;-74
2023/09/27 04:00:14;;;;;;;23.48;16.67;;;;;;;;;;2100605;28;20036;-75
2023/09/27 04:01:35;;;;;;;24.52;16.92;;;;;;;;;;2106640;28;20036;-73
2023/09/27 04:02:56;;;;;;;22.38;15.75;;;;;;;;;;2093943;28;20059;-74
2023/09/27 04:04:17;;;;;;;21.33;15.18;;;;;;;;;;2094267;28;20435;-74
2023/09/27 04:05:38;;;;;;;20.27;14.17;;;;;;;;;;2094467;28;20044;-75
2023/09/27 04:06:59;;;;;;;20.30;13.25;;;;;;;;;;2085209;28;21030;-76
2023/09/27 04:08:19;;;;;;;20.83;14.48;;;;;;;;;;2092238;28;20044;-74
2023/09/27 04:09:40;;;;;;;21.73;16.52;;;;;;;;;;2097034;28;20051;-73
2023/09/27 04:11:03;;;;;;;20.17;14.75;;;;;;;;;;2093305;28;20074;-74
2023/09/27 04:12:24;;;;;;;22.80;15.27;;;;;;;;;;2092542;28;20098;-74
2023/09/27 04:13:45;;;;;;;18.98;14.55;;;;;;;;;;2092375;28;20412;-73
2023/09/27 04:15:08;;;;;;;19.83;13.48;;;;;;;;;;2090944;28;20040;-75
2023/09/27 04:16:30;;;;;;;22.95;15.45;;;;;;;;;;2093746;28;20063;-74
2023/09/27 04:17:51;;;;;;;;;;;;;;;;;;2096974;28;20083;-74
2023/09/27 04:19:13;;;;;;;22.98;16.00;;;;;;;;;;2093714;28;19913;-74
2023/09/27 04:20:34;;;;;;;20.65;14.50;;;;;;;;;;2094079;28;20036;-74
2023/09/27 04:21:55;;;;;;;19.05;14.70;;;;;;;;;;2092496;28;20021;-75
2023/09/27 04:23:15;;;;;;;21.58;15.52;;;;;;;;;;2086968;28;20029;-74
2023/09/27 04:24:36;;;;;;;23.13;16.02;;;;;;;;;;2094546;28;20044;-75
2023/09/27 04:25:58;;;;;;;24.42;15.85;;;;;;;;;;2095311;28;20033;-74
2023/09/27 04:27:19;;;;;;;19.35;15.05;;;;;;;;;;2088300;28;20558;-74
2023/09/27 04:28:40;;;;;;;22.02;15.25;;;;;;;;;;2110096;28;20116;-74
2023/09/27 04:30:01;;;;;;;25.15;15.68;;;;;;;;;;2102577;28;20033;-74
2023/09/27 04:31:21;;;;;;;24.80;15.40;;;;;;;;;;2096708;28;20515;-74
2023/09/27 04:32:43;;;;;;;25.65;16.30;;;;;;;;;;2097649;28;20035;-74
2023/09/27 04:34:04;;;;;;;25.40;18.52;;;;;;;;;;2097028;28;20021;-74
2023/09/27 04:35:25;;;;;;;23.80;16.55;;;;;;;;;;2093829;28;20052;-74
2023/09/27 04:36:47;;;;;;;25.90;16.65;;;;;;;;;;2098319;28;20475;-70
2023/09/27 04:38:09;;;;;;;23.30;15.70;;;;;;;;;;2092822;28;20036;-70
2023/09/27 04:39:31;;;;;;;25.55;16.38;;;;;;;;;;2093763;28;20029;-69
2023/09/27 04:40:52;;;;;;;24.08;16.70;;;;;;;;;;2097531;28;20028;-70
2023/09/27 04:42:13;;;;;;;26.58;16.42;;;;;;;;;;2096724;28;20356;-69
2023/09/27 04:43:34;;;;;;;27.63;16.73;;;;;;;;;;2095729;28;20515;-69
2023/09/27 04:44:55;;;;;;;24.30;16.25;;;;;;;;;;2091266;28;20041;-69
2023/09/27 04:46:17;;;;;;;19.70;15.07;;;;;;;;;;2092305;28;20040;-70
2023/09/27 04:47:38;;;;;;;21.10;16.40;;;;;;;;;;2089935;28;20036;-69
2023/09/27 04:48:59;;;;;;;21.77;16.42;;;;;;;;;;2098726;28;20097;-71
2023/09/27 04:50:20;;;;;;;21.55;15.90;;;;;;;;;;2094509;28;20035;-69
2023/09/27 04:51:41;;;;;;;23.92;16.45;;;;;;;;;;2092929;28;20032;-70
2023/09/27 04:53:02;;;;;;;21.65;16.27;;;;;;;;;;2102903;28;20028;-69
2023/09/27 04:54:23;;;;;;;22.98;16.45;;;;;;;;;;2096616;28;20040;-70
2023/09/27 04:55:44;;;;;;;23.95;16.42;;;;;;;;;;2095791;28;20036;-70
2023/09/27 04:57:04;;;;;;;23.80;17.75;;;;;;;;;;2094687;28;20090;-69
2023/09/27 04:58:26;;;;;;;25.42;17.30;;;;;;;;;;2091578;28;20036;-70
2023/09/27 04:59:47;;;;;;;25.67;17.10;;;;;;;;;;2098365;28;20525;-70
2023/09/27 05:01:09;;;;;;;25.00;16.73;;;;;;;;;;2092429;28;20090;-71
2023/09/27 05:02:30;;;;;;;25.63;17.55;;;;;;;;;;2095235;28;20036;-70
2023/09/27 05:03:51;;;;;;;23.00;14.52;;;;;;;;;;2094926;28;20025;-69
2023/09/27 05:05:12;;;;;;;27.45;15.27;;;;;;;;;;2095178;28;20106;-70
2023/09/27 05:06:32;;;;;;;23.00;15.23;;;;;;;;;;2093261;28;20025;-71
2023/09/27 05:07:53;;;;;;;23.23;15.57;;;;;;;;;;2090965;28;20025;-70
2023/09/27 05:09:14;;;;;;;20.92;16.42;;;;;;;;;;2085097;28;20111;-69
2023/09/27 05:10:36;;;;;;;21.48;14.77;;;;;;;;;;2092788;28;20117;-71
2023/09/27 05:11:57;;;;;;;21.75;15.77;;;;;;;;;;2095640;28;20500;-69
2023/09/27 05:13:21;;;;;;;23.77;16.20;;;;;;;;;;2095024;28;20059;-70
2023/09/27 05:14:42;;;;;;;24.40;16.30;;;;;;;;;;2102597;28;20028;-70
2023/09/27 05:16:03;;;;;;;20.77;15.30;;;;;;;;;;2096928;28;20492;-70
2023/09/27 05:17:25;;;;;;;25.15;15.63;;;;;;;;;;2097045;28;20089;-71
2023/09/27 05:18:45;;;;;;;22.92;15.40;;;;;;;;;;2092357;28;20025;-70
2023/09/27 05:20:10;;;;;;;22.83;16.98;;;;;;;;;;2094944;28;20036;-70
2023/09/27 05:21:31;;;;;;;22.55;15.20;;;;;;;;;;2095878;28;20036;-69
2023/09/27 05:22:52;;;;;;;21.27;15.38;;;;;;;;;;2096137;28;20109;-70
2023/09/27 05:24:13;;;;;;;24.20;16.67;;;;;;;;;;2093765;28;20025;-70
2023/09/27 05:25:33;;;;;;;32.58;18.85;;;;;;;;;;2092755;28;20411;-71
2023/09/27 05:26:59;;;;;;;24.88;18.05;;;;;;;;;;2095446;28;20037;-70
2023/09/27 05:28:20;;;;;;;29.30;17.67;;;;;;;;;;2091456;28;20477;-71
2023/09/27 05:29:41;;;;;;;28.33;16.58;;;;;;;;;;2090086;28;20036;-70
2023/09/27 05:31:02;;;;;;;25.33;16.47;;;;;;;;;;2093450;28;20037;-70
2023/09/27 05:32:23;;;;;;;24.95;16.20;;;;;;;;;;2092976;28;20500;-70
2023/09/27 05:33:44;;;;;;;29.98;17.17;;;;;;;;;;2094334;28;20036;-70
2023/09/27 05:35:06;;;;;;;26.05;17.63;;;;;;;;;;2090680;28;20037;-70
2023/09/27 05:36:27;;;;;;;23.15;15.68;;;;;;;;;;2094785;28;20081;-70
2023/09/27 05:37:49;;;;;;;27.90;16.63;;;;;;;;;;2097179;28;20024;-70
2023/09/27 05:39:10;;;;;;;26.63;16.70;;;;;;;;;;2092736;28;20566;-71
2023/09/27 05:40:31;;;;;;;24.67;15.15;;;;;;;;;;2093204;28;20078;-71
2023/09/27 05:41:52;;;;;;;21.90;15.77;;;;;;;;;;2092514;28;20099;-71
2023/09/27 05:43:13;;;;;;;23.90;16.83;;;;;;;;;;2087686;28;20021;-71
2023/09/27 05:44:34;;;;;;;22.67;15.77;;;;;;;;;;2091258;28;20213;-70
2023/09/27 05:45:56;;;;;;;21.98;15.15;;;;;;;;;;2089835;28;20462;-69
2023/09/27 05:47:18;;;;;;;20.25;14.85;;;;;;;;;;2095098;28;20028;-70
2023/09/27 05:48:39;;;;;;;20.33;15.48;;;;;;;;;;2096481;28;20020;-71
2023/09/27 05:50:00;;;;;;;20.02;15.02;;;;;;;;;;2096045;28;20040;-72
2023/09/27 05:51:22;;;;;;;23.05;15.38;;;;;;;;;;2096570;28;20480;-71
2023/09/27 05:52:46;;;;;;;27.10;15.77;;;;;;;;;;2095469;28;20165;-70
2023/09/27 05:54:07;;;;;;;19.75;14.18;;;;;;;;;;2103820;28;20028;-70
2023/09/27 05:55:27;;;;;;;20.92;15.38;;;;;;;;;;2096928;28;20048;-72
2023/09/27 05:56:51;;;;;;;20.27;14.65;;;;;;;;;;2099805;28;20028;-70
2023/09/27 05:58:12;;;;;;;22.70;15.55;;;;;;;;;;2103932;28;20085;-71
2023/09/27 05:59:33;;;;;;;24.40;15.95;;;;;;;;;;2095463;28;20488;-72
2023/09/27 06:00:54;;;;;;;29.63;16.75;;;;;;;;;;2094015;28;20045;-71
2023/09/27 06:02:20;;;;;;;27.90;16.67;;;;;;;;;;2094311;28;20017;-72
2023/09/27 06:03:40;;;;;;;25.63;17.00;;;;;;;;;;2093628;28;20024;-71
2023/09/27 06:05:03;;;;;;;22.70;16.98;;;;;;;;;;2095429;28;20444;-71
2023/09/27 06:06:24;;;;;;;26.30;16.92;;;;;;;;;;2096474;28;20040;-72
2023/09/27 06:07:45;;;;;;;24.45;17.05;;;;;;;;;;2102763;28;20024;-70
2023/09/27 06:09:06;;;;;;;23.42;17.08;;;;;;;;;;2097051;28;20036;-72
2023/09/27 06:10:26;;;;;;;23.77;16.52;;;;;;;;;;2095068;28;20042;-72
2023/09/27 06:11:47;;;;;;;24.73;17.65;;;;;;;;;;2098364;28;20029;-70
2023/09/27 06:13:10;;;;;;;24.48;16.70;;;;;;;;;;2097864;28;20025;-70
2023/09/27 06:14:31;;;;;;;26.65;16.92;;;;;;;;;;2096143;28;20025;-70
2023/09/27 06:15:54;;;;;;;28.48;17.55;;;;;;;;;;2096571;28;20087;-70
2023/09/27 06:17:17;;;;;;;27.33;17.48;;;;;;;;;;2097426;28;20029;-70
2023/09/27 06:18:38;;;;;;;25.75;17.92;;;;;;;;;;2096269;28;20044;-70
2023/09/27 06:19:58;;;;;;;25.67;17.67;;;;;;;;;;2097695;28;20024;-70
2023/09/27 06:21:19;;;;;;;30.33;17.63;;;;;;;;;;2098650;28;20028;-71
2023/09/27 06:22:40;;;;;;;26.13;17.77;;;;;;;;;;2097325;28;20526;-70
2023/09/27 06:24:01;;;;;;;25.85;17.35;;;;;;;;;;2101312;28;20151;-70
2023/09/27 06:25:28;;;;;;;24.65;17.85;;;;;;;;;;2095115;28;20033;-70
2023/09/27 06:26:50;;;;;;;26.15;18.10;;;;;;;;;;2096892;28;20031;-71
2023/09/27 06:28:13;;;;;;;25.55;17.58;;;;;;;;;;2088875;28;20063;-70
2023/09/27 06:29:34;;;;;;;29.08;18.88;;;;;;;;;;2094739;28;20024;-71
2023/09/27 06:30:55;;;;;;;30.25;19.02;;;;;;;;;;2095908;28;20029;-71
2023/09/27 06:32:16;;;;;;;32.92;19.98;;;;;;;;;;2094598;28;20035;-72
2023/09/27 06:33:39;;;;;;;27.55;18.85;;;;;;;;;;2091335;28;20710;-71
2023/09/27 06:35:00;;;;;;;27.90;18.33;;;;;;;;;;2099284;28;20028;-71
2023/09/27 06:36:21;;;;;;;29.02;19.70;;;;;;;;;;2092377;28;20044;-71
2023/09/27 06:37:43;;;;;;;32.25;19.80;;;;;;;;;;2088987;28;20025;-71
2023/09/27 06:39:07;;;;;;;31.42;19.90;;;;;;;;;;2097148;28;20495;-71
2023/09/27 06:40:29;;;;;;;28.10;18.05;;;;;;;;;;2094126;28;20055;-71
2023/09/27 06:41:50;;;;;;;29.75;19.67;;;;;;;;;;2093897;28;20024;-70
2023/09/27 06:43:11;;;;;;;30.50;21.05;;;;;;;;;;2103094;28;20023;-70
2023/09/27 06:44:33;;;;;;;27.55;19.63;;;;;;;;;;2097270;28;20016;-70
2023/09/27 06:45:54;;;;;;;32.83;19.85;;;;;;;;;;2101016;28;20407;-70
2023/09/27 06:47:15;;;;;;;32.95;20.40;;;;;;;;;;2094578;28;20036;-69
2023/09/27 06:48:36;;;;;;;33.08;19.95;;;;;;;;;;2092577;28;20037;-70
2023/09/27 06:49:57;;;;;;;29.73;20.67;;;;;;;;;;2095613;28;20078;-71
2023/09/27 06:51:18;;;;;;;32.95;20.75;;;;;;;;;;2095052;28;20037;-71
2023/09/27 06:52:42;;;;;;;32.80;20.48;;;;;;;;;;2091740;28;20037;-71
2023/09/27 06:54:03;;;;;;;35.97;21.92;;;;;;;;;;2096056;28;20029;-70
2023/09/27 06:55:24;;;;;;;36.95;22.42;;;;;;;;;;2097000;28;20028;-70
2023/09/27 06:56:45;;;;;;;39.13;22.10;;;;;;;;;;2097224;28;20029;-71
2023/09/27 06:58:06;;;;;;;35.25;22.60;;;;;;;;;;2097933;28;20025;-77
2023/09/27 06:59:27;;;;;;;35.95;22.80;;;;;;;;;;2098844;28;20604;-76
2023/09/27 07:00:48;;;;;;;36.17;22.60;;;;;;;;;;2097259;28;20044;-76
2023/09/27 07:02:09;;;;;;;34.47;22.00;;;;;;;;;;2089573;28;20025;-76
2023/09/27 07:03:33;;;;;;;31.38;21.38;;;;;;;;;;2092399;28;20119;-76
2023/09/27 07:04:54;;;;;;;34.42;22.90;;;;;;;;;;2090701;28;20538;-75
2023/09/27 07:06:15;;;;;;;30.73;22.38;;;;;;;;;;2094129;28;20037;-77
2023/09/27 07:07:36;;;;;;;34.55;22.40;;;;;;;;;;2089427;28;20077;-76
2023/09/27 07:08:57;;;;;;;34.67;21.80;;;;;;;;;;2091246;28;20021;-77
2023/09/27 07:10:18;;;;;;;30.45;20.98;;;;;;;;;;2096681;28;20033;-76
2023/09/27 07:11:42;;;;;;;29.42;21.33;;;;;;;;;;2097087;28;20074;-76
2023/09/27 07:13:03;;;;;;;33.75;22.65;;;;;;;;;;2097013;28;20028;-78
2023/09/27 07:14:23;;;;;;;33.25;22.00;;;;;;;;;;2096668;28;20033;-78
2023/09/27 07:15:48;;;;;;;32.22;21.45;;;;;;;;;;2095703;28;20345;-77
2023/09/27 07:17:08;;;;;;;33.50;21.73;;;;;;;;;;2096728;28;20055;-78
2023/09/27 07:18:29;;;;;;;34.22;22.25;;;;;;;;;;2096531;28;20102;-77
2023/09/27 07:19:51;;;;;;;30.55;21.38;;;;;;;;;;2105318;28;20506;-78
2023/09/27 07:21:12;;;;;;;35.63;22.70;;;;;;;;;;2087799;28;20029;-77
2023/09/27 07:22:33;;;;;;;30.40;21.75;;;;;;;;;;2093378;28;20044;-77
2023/09/27 07:23:54;;;;;;;29.75;22.42;;;;;;;;;;2098748;28;20036;-78
2023/09/27 07:25:18;;;;;;;32.35;22.02;;;;;;;;;;2104025;28;20436;-78
2023/09/27 07:26:41;;;;;;;27.60;20.70;;;;;;;;;;2098872;28;20027;-77
2023/09/27 07:28:05;;;;;;;31.58;21.20;;;;;;;;;;2098378;28;20032;-77
2023/09/27 07:29:27;;;;;;;34.92;20.90;;;;;;;;;;2096848;28;20025;-78
2023/09/27 07:30:48;;;;;;;28.90;20.92;;;;;;;;;;2096781;28;20348;-77
2023/09/27 07:32:10;;;;;;;34.08;22.42;;;;;;;;;;2098624;28;20036;-76
2023/09/27 07:33:31;;;;;;;30.02;21.88;;;;;;;;;;2095754;28;20028;-77
2023/09/27 07:34:53;;;;;;;32.70;22.35;;;;;;;;;;2098008;28;20032;-76
2023/09/27 07:36:14;;;;;;;32.33;22.42;;;;;;;;;;2096884;28;20049;-77
2023/09/27 07:37:36;;;;;;;33.58;22.90;;;;;;;;;;2094584;28;20471;-77
2023/09/27 07:38:57;;;;;;;33.67;23.77;;;;;;;;;;2096322;28;20036;-76
2023/09/27 07:40:18;;;;;;;32.72;23.33;;;;;;;;;;2102215;28;20036;-78
2023/09/27 07:41:40;;;;;;;33.63;23.75;;;;;;;;;;2096357;28;20021;-76
2023/09/27 07:43:01;;;;;;;34.22;22.95;;;;;;;;;;2097115;28;20033;-76
2023/09/27 07:44:22;;;;;;;32.22;23.25;;;;;;;;;;2095170;28;20546;-77
2023/09/27 07:45:46;;;;;;;30.73;22.70;;;;;;;;;;2095331;28;20041;-78
2023/09/27 07:47:07;;;;;;;39.92;23.10;;;;;;;;;;2094551;28;20028;-76
2023/09/27 07:48:31;;;;;;;34.20;23.08;;;;;;;;;;2100030;28;20046;-77
2023/09/27 07:49:52;;;;;;;29.38;22.10;;;;;;;;;;2094957;28;20021;-77
2023/09/27 07:51:15;;;;;;;31.25;25.00;;;;;;;;;;2086913;28;20297;-78
2023/09/27 07:52:37;;;;;;;35.80;23.88;;;;;;;;;;2086521;28;20445;-76
2023/09/27 07:53:57;;;;;;;36.63;23.58;;;;;;;;;;2096783;28;20032;-77